Time;durP1;ratioP1;P1;durP2;ratioP2;P2;SDS_P1;SDS_P2;PMS_P1;PMS_P2;Temp;Humidity;BMP_temperature;BMP_pressure;BME280_temperature;BME280_humidity;BME280_pressure;Samples;Min_cycle;Max_cycle;Signal;HPM_P1;HPM_P2
2022/04/05 00:02:06;;;;;;;1.02;0.70;;;19.50;67.80;;;;;;7933397;28;20176;-49
2022/04/05 00:05:51;;;;;;;0.60;0.60;;;19.50;67.00;;;;;;7933435;28;20282;-54
2022/04/05 00:09:37;;;;;;;1.00;0.70;;;19.50;66.90;;;;;;7933132;28;20179;-49
2022/04/05 00:13:22;;;;;;;0.68;0.63;;;19.50;66.90;;;;;;7933106;28;20203;-49
2022/04/05 00:17:08;;;;;;;0.63;0.63;;;19.40;66.80;;;;;;7933326;28;20665;-52
2022/04/05 00:20:53;;;;;;;0.60;0.60;;;19.40;66.90;;;;;;7932979;28;20168;-49
2022/04/05 00:24:39;;;;;;;0.60;0.50;;;19.40;66.90;;;;;;7932989;28;20204;-50
2022/04/05 00:28:24;;;;;;;0.70;0.70;;;19.40;67.80;;;;;;7932832;28;20190;-53
2022/04/05 00:32:10;;;;;;;0.50;0.50;;;19.40;66.80;;;;;;7932440;28;20199;-49
2022/04/05 00:35:55;;;;;;;0.73;0.73;;;19.30;66.80;;;;;;7932572;28;20194;-49
2022/04/05 00:39:41;;;;;;;0.57;0.57;;;19.30;66.90;;;;;;7932300;28;20171;-53
2022/04/05 00:43:26;;;;;;;0.63;0.50;;;19.30;66.90;;;;;;7931868;28;20198;-49
2022/04/05 00:47:21;;;;;;;1.75;0.77;;;19.30;66.90;;;;;;7932533;28;20183;-49
2022/04/05 00:51:07;;;;;;;0.60;0.60;;;19.30;66.80;;;;;;7931820;28;20285;-49
2022/04/05 00:54:54;;;;;;;0.68;0.60;;;19.20;66.70;;;;;;7931736;28;20628;-49
2022/04/05 00:58:40;;;;;;;0.75;0.50;;;19.20;66.80;;;;;;7932041;28;20248;-52
2022/04/05 01:02:28;;;;;;;0.57;0.50;;;19.20;66.80;;;;;;7931951;28;20183;-52
2022/04/05 01:06:17;;;;;;;0.60;0.50;;;19.20;66.70;;;;;;7932109;28;20200;-49
2022/04/05 01:10:05;;;;;;;1.85;0.50;;;19.10;66.50;;;;;;7931988;28;20175;-51
2022/04/05 01:13:52;;;;;;;2.92;0.77;;;19.10;66.20;;;;;;7931795;28;20618;-50
2022/04/05 01:17:39;;;;;;;1.13;0.60;;;19.00;66.60;;;;;;7932046;28;20199;-49
2022/04/05 01:21:25;;;;;;;0.85;0.63;;;19.00;66.50;;;;;;7931616;28;20204;-53
2022/04/05 01:25:18;;;;;;;0.77;0.50;;;19.00;66.50;;;;;;7931712;28;20249;-50
2022/04/05 01:29:04;;;;;;;0.47;0.40;;;19.00;66.50;;;;;;7931637;28;20168;-52
2022/04/05 01:32:50;;;;;;;0.95;0.63;;;18.90;66.50;;;;;;7931441;28;20216;-53
2022/04/05 01:36:43;;;;;;;1.83;0.57;;;18.90;66.40;;;;;;7931568;28;20244;-51
2022/04/05 01:40:29;;;;;;;0.90;0.90;;;18.90;65.80;;;;;;7931265;28;20198;-49
2022/04/05 01:44:14;;;;;;;0.50;0.50;;;18.80;66.10;;;;;;7931412;28;20819;-50
2022/04/05 01:48:00;;;;;;;0.63;0.60;;;18.90;66.30;;;;;;7932084;28;20645;-49
2022/04/05 01:51:46;;;;;;;2.55;0.50;;;18.80;66.40;;;;;;7931424;28;20211;-49
2022/04/05 01:55:31;;;;;;;0.70;0.70;;;18.80;67.20;;;;;;7934071;28;20200;-50
2022/04/05 01:59:28;;;;;;;0.95;0.50;;;18.80;66.20;;;;;;7937022;28;20168;-53
2022/04/05 02:03:13;;;;;;;0.98;0.70;;;18.80;66.00;;;;;;7937615;28;20263;-50
2022/04/05 02:06:59;;;;;;;0.60;0.60;;;18.80;66.30;;;;;;7937141;28;20176;-50
2022/04/05 02:10:44;;;;;;;0.60;0.60;;;18.80;66.50;;;;;;7936673;28;20180;-50
2022/04/05 02:14:30;;;;;;;1.85;0.60;;;18.70;66.40;;;;;;7936751;28;20794;-49
2022/04/05 02:18:15;;;;;;;0.88;0.60;;;18.70;66.00;;;;;;7936759;28;20254;-52
2022/04/05 02:22:01;;;;;;;0.57;0.57;;;18.70;66.10;;;;;;7936369;28;20267;-52
2022/04/05 02:25:47;;;;;;;0.73;0.50;;;18.70;66.10;;;;;;7936392;27;20192;-52
2022/04/05 02:29:34;;;;;;;2.35;0.50;;;18.70;66.10;;;;;;7936185;28;20187;-50
2022/04/05 02:33:20;;;;;;;0.60;0.60;;;18.70;66.10;;;;;;7936141;28;20211;-50
2022/04/05 02:37:05;;;;;;;0.88;0.60;;;18.70;66.20;;;;;;7936187;28;20184;-52
2022/04/05 02:40:52;;;;;;;0.98;0.80;;;18.60;65.80;;;;;;7935886;28;20179;-51
2022/04/05 02:44:38;;;;;;;0.47;0.45;;;18.60;66.00;;;;;;7935973;28;20208;-50
2022/04/05 02:48:24;;;;;;;2.25;0.60;;;18.60;66.10;;;;;;7935928;28;20198;-52
2022/04/05 02:52:10;;;;;;;2.30;0.70;;;18.60;66.10;;;;;;7935372;28;20211;-51
2022/04/05 02:55:55;;;;;;;0.68;0.68;;;18.60;66.00;;;;;;7935476;28;20192;-52
2022/04/05 02:59:41;;;;;;;0.63;0.60;;;18.60;65.60;;;;;;7935277;28;20168;-52
2022/04/05 03:03:26;;;;;;;0.50;0.50;;;18.50;65.70;;;;;;7935292;28;20204;-54
2022/04/05 03:07:12;;;;;;;0.82;0.65;;;18.50;66.10;;;;;;7935119;28;20172;-49
2022/04/05 03:10:57;;;;;;;0.50;0.40;;;18.50;66.10;;;;;;7935262;28;20184;-49
2022/04/05 03:14:43;;;;;;;0.70;0.70;;;18.50;66.10;;;;;;7935488;28;20243;-49
2022/04/05 03:18:28;;;;;;;3.38;0.82;;;18.50;66.10;;;;;;7935844;28;20256;-52
2022/04/05 03:22:16;;;;;;;2.38;0.80;;;18.50;65.70;;;;;;7934764;28;20175;-52
2022/04/05 03:26:01;;;;;;;0.73;0.55;;;18.50;65.90;;;;;;7934836;28;20275;-52
2022/04/05 03:29:47;;;;;;;3.28;0.70;;;18.50;66.00;;;;;;7934475;28;20176;-52
2022/04/05 03:33:32;;;;;;;3.00;0.40;;;18.50;65.70;;;;;;7934475;28;20200;-52
2022/04/05 03:37:18;;;;;;;1.98;0.60;;;18.50;65.80;;;;;;7934401;28;20175;-53
2022/04/05 03:41:04;;;;;;;1.95;0.47;;;18.60;65.40;;;;;;7934083;28;20203;-52
2022/04/05 03:44:49;;;;;;;0.43;0.43;;;18.60;65.20;;;;;;7934073;28;20192;-50
2022/04/05 03:48:35;;;;;;;1.25;0.43;;;18.70;65.00;;;;;;7934150;28;20613;-52
2022/04/05 03:52:21;;;;;;;0.63;0.50;;;18.70;65.50;;;;;;7933441;28;20211;-53
2022/04/05 03:56:06;;;;;;;3.90;0.65;;;18.70;65.00;;;;;;7933698;28;20192;-54
2022/04/05 03:59:52;;;;;;;0.45;0.40;;;18.70;65.10;;;;;;7933476;28;20766;-52
2022/04/05 04:03:37;;;;;;;0.50;0.50;;;18.80;65.10;;;;;;7933483;28;20200;-55
2022/04/05 04:07:22;;;;;;;1.45;0.50;;;18.80;64.60;;;;;;7933446;28;20226;-53
2022/04/05 04:11:08;;;;;;;0.68;0.45;;;18.80;64.80;;;;;;7933031;28;20697;-52
2022/04/05 04:14:53;;;;;;;0.50;0.50;;;18.90;64.50;;;;;;7933099;28;20207;-52
2022/04/05 04:18:39;;;;;;;0.65;0.63;;;18.80;64.10;;;;;;7932207;28;20179;-52
2022/04/05 04:22:26;;;;;;;0.50;0.50;;;18.90;63.70;;;;;;7932689;28;20180;-54
2022/04/05 04:26:12;;;;;;;0.90;0.60;;;18.90;63.60;;;;;;7933036;28;20200;-52
2022/04/05 04:29:57;;;;;;;0.73;0.57;;;18.90;63.60;;;;;;7932542;28;20229;-53
2022/04/05 04:33:43;;;;;;;0.55;0.55;;;19.00;63.40;;;;;;7932778;28;20219;-53
2022/04/05 04:37:30;;;;;;;2.35;0.90;;;19.00;63.40;;;;;;7925239;28;20579;-52
2022/04/05 04:41:15;;;;;;;0.75;0.50;;;19.00;63.40;;;;;;7899984;28;20176;-53
2022/04/05 04:45:01;;;;;;;2.70;0.63;;;19.00;63.20;;;;;;7911453;28;20280;-53
2022/04/05 04:48:47;;;;;;;3.05;0.60;;;19.00;63.00;;;;;;7931669;28;20250;-53
2022/04/05 04:52:33;;;;;;;3.47;0.60;;;19.10;63.00;;;;;;7931043;28;20215;-53
2022/04/05 04:56:18;;;;;;;0.43;0.40;;;19.10;63.00;;;;;;7931194;28;20219;-52
2022/04/05 05:00:05;;;;;;;2.15;0.60;;;19.10;62.90;;;;;;7931363;28;20176;-52
2022/04/05 05:03:51;;;;;;;1.52;0.63;;;19.10;62.80;;;;;;7931682;28;20191;-54
2022/04/05 05:07:37;;;;;;;3.00;0.55;;;19.10;62.80;;;;;;7927422;28;20184;-52
2022/04/05 05:11:22;;;;;;;4.93;0.55;;;19.10;62.80;;;;;;7930997;28;20211;-52
2022/04/05 05:15:17;;;;;;;0.70;0.52;;;19.20;62.70;;;;;;7931005;28;20188;-52
2022/04/05 05:19:04;;;;;;;1.98;0.50;;;19.10;62.60;;;;;;7931210;28;20179;-52
2022/04/05 05:22:50;;;;;;;4.80;0.75;;;19.20;62.50;;;;;;7904346;28;20196;-52
2022/04/05 05:26:35;;;;;;;0.60;0.60;;;19.20;62.50;;;;;;7912414;28;20218;-52
2022/04/05 05:30:22;;;;;;;4.50;0.63;;;19.20;62.50;;;;;;7912678;28;20188;-52
2022/04/05 05:34:08;;;;;;;3.05;0.60;;;19.20;62.30;;;;;;7905393;28;20223;-52
2022/04/05 05:37:53;;;;;;;2.20;0.60;;;19.20;62.00;;;;;;7922907;28;20661;-52
2022/04/05 05:41:39;;;;;;;1.88;0.60;;;19.20;61.60;;;;;;7928092;28;20601;-51
2022/04/05 05:45:27;;;;;;;2.25;0.70;;;19.20;61.70;;;;;;7933157;28;20208;-52
2022/04/05 05:49:12;;;;;;;10.13;1.45;;;19.20;61.80;;;;;;7904831;28;20572;-53
2022/04/05 05:52:59;;;;;;;7.15;1.30;;;19.30;61.80;;;;;;7925073;28;20246;-54
2022/04/05 05:56:44;;;;;;;10.35;1.23;;;19.30;62.10;;;;;;7904894;28;20196;-52
2022/04/05 06:00:30;;;;;;;12.38;1.50;;;19.30;62.00;;;;;;7904519;28;20173;-52
2022/04/05 06:04:16;;;;;;;7.25;1.23;;;19.30;62.20;;;;;;7904334;28;20675;-52
2022/04/05 06:08:01;;;;;;;6.03;1.13;;;19.30;62.20;;;;;;7933176;28;20191;-52
2022/04/05 06:11:47;;;;;;;8.05;1.10;;;19.40;62.40;;;;;;7935675;28;20562;-52
2022/04/05 06:15:32;;;;;;;7.45;1.10;;;19.40;62.50;;;;;;7935726;28;20187;-52
2022/04/05 06:19:18;;;;;;;5.22;1.00;;;19.40;63.10;;;;;;7935959;28;20187;-51
2022/04/05 06:23:05;;;;;;;11.45;0.90;;;19.50;63.10;;;;;;7906615;28;20184;-51
2022/04/05 06:26:50;;;;;;;4.15;1.10;;;19.60;63.00;;;;;;7903919;28;20304;-53
2022/04/05 06:30:38;;;;;;;5.78;0.73;;;19.70;63.10;;;;;;7902500;28;20189;-52
2022/04/05 06:34:27;;;;;;;5.13;1.08;;;19.80;63.00;;;;;;7908421;28;20211;-53
2022/04/05 06:38:13;;;;;;;6.70;1.00;;;19.80;63.10;;;;;;7910260;28;20191;-54
2022/04/05 06:41:59;;;;;;;11.18;1.05;;;19.80;63.80;;;;;;7922261;28;20226;-53
2022/04/05 06:45:45;;;;;;;5.30;0.90;;;19.90;64.10;;;;;;7934751;28;20200;-54
2022/04/05 06:49:31;;;;;;;7.43;1.27;;;20.10;64.30;;;;;;7934144;28;20633;-54
2022/04/05 06:53:17;;;;;;;10.77;1.00;;;20.10;64.20;;;;;;7902937;28;20208;-55
2022/04/05 06:57:03;;;;;;;6.53;1.27;;;20.10;64.00;;;;;;7913471;28;20266;-52
2022/04/05 07:00:48;;;;;;;7.53;1.23;;;20.20;64.40;;;;;;7902855;28;20184;-53
2022/04/05 07:04:36;;;;;;;7.63;1.10;;;20.20;64.40;;;;;;7903540;28;20249;-53
2022/04/05 07:08:21;;;;;;;8.82;1.35;;;20.30;64.40;;;;;;7934527;28;20191;-55
2022/04/05 07:12:07;;;;;;;10.57;1.73;;;20.30;64.40;;;;;;7933946;28;20199;-53
2022/04/05 07:15:53;;;;;;;6.88;1.30;;;20.30;64.50;;;;;;7927722;28;20232;-53
2022/04/05 07:19:38;;;;;;;14.68;1.60;;;20.30;64.60;;;;;;7904118;28;20665;-53
2022/04/05 07:23:24;;;;;;;6.28;1.15;;;20.40;64.70;;;;;;7933878;28;20176;-53
2022/04/05 07:27:10;;;;;;;7.63;1.10;;;20.40;64.60;;;;;;7915859;28;20255;-54
2022/04/05 07:30:55;;;;;;;3.22;1.00;;;20.50;64.50;;;;;;7901825;28;20177;-53
2022/04/05 07:34:41;;;;;;;7.22;1.42;;;20.60;64.50;;;;;;7904094;28;20256;-51
2022/04/05 07:38:26;;;;;;;7.93;1.30;;;20.70;64.50;;;;;;7933256;28;20168;-53
2022/04/05 07:42:12;;;;;;;9.05;1.45;;;20.80;64.30;;;;;;7932874;28;20168;-53
2022/04/05 07:45:58;;;;;;;10.80;1.75;;;20.80;64.40;;;;;;7933089;28;20570;-53
2022/04/05 07:49:43;;;;;;;7.38;1.30;;;20.90;64.50;;;;;;7911376;28;20211;-52
2022/04/05 07:53:29;;;;;;;4.30;0.95;;;20.90;64.50;;;;;;7901199;28;20208;-55
2022/04/05 07:57:15;;;;;;;5.97;0.80;;;20.90;64.50;;;;;;7901158;28;20195;-56
2022/04/05 08:01:00;;;;;;;8.80;1.02;;;21.00;64.70;;;;;;7901309;28;20581;-54
2022/04/05 08:04:45;;;;;;;5.88;1.05;;;21.00;64.70;;;;;;7904719;28;20204;-52
2022/04/05 08:08:31;;;;;;;2.53;0.80;;;21.00;64.80;;;;;;7933023;28;20650;-55
2022/04/05 08:12:17;;;;;;;7.45;1.33;;;21.00;64.90;;;;;;7931150;28;20200;-54
2022/04/05 08:16:02;;;;;;;4.22;0.90;;;20.90;64.90;;;;;;7944632;27;20219;-54
2022/04/05 08:19:48;;;;;;;11.48;1.20;;;20.90;65.20;;;;;;7904084;28;20184;-57
2022/04/05 08:23:33;;;;;;;17.95;1.63;;;20.90;65.00;;;;;;7929674;28;20284;-52
2022/04/05 08:27:19;;;;;;;8.98;1.42;;;20.80;65.10;;;;;;7928977;28;20180;-52
2022/04/05 08:31:04;;;;;;;15.68;1.63;;;20.70;65.40;;;;;;7929053;28;20206;-52
2022/04/05 08:34:50;;;;;;;8.70;1.08;;;20.70;65.40;;;;;;7924263;28;20212;-52
2022/04/05 08:38:35;;;;;;;18.45;1.60;;;20.70;65.10;;;;;;7900301;28;20172;-52
2022/04/05 08:42:20;;;;;;;15.73;1.60;;;20.60;64.20;;;;;;7900781;28;20199;-52
2022/04/05 08:46:06;;;;;;;12.45;1.27;;;20.50;65.00;;;;;;7902805;28;20244;-51
2022/04/05 08:49:52;;;;;;;25.38;1.67;;;20.50;65.30;;;;;;7900228;28;20745;-51
2022/04/05 08:53:39;;;;;;;15.30;2.33;;;20.50;65.40;;;;;;7900292;28;20314;-51
2022/04/05 08:57:24;;;;;;;19.15;2.17;;;20.50;65.70;;;;;;7900532;28;20164;-52
2022/04/05 09:01:10;;;;;;;7.22;1.25;;;20.40;65.80;;;;;;7900181;28;20196;-53
2022/04/05 09:04:55;;;;;;;14.18;1.15;;;20.40;65.80;;;;;;7899832;28;20232;-51
2022/04/05 09:08:41;;;;;;;7.63;1.10;;;20.40;65.90;;;;;;7900238;28;20272;-52
2022/04/05 09:12:28;;;;;;;8.40;0.77;;;20.40;65.90;;;;;;7900041;28;20204;-53
2022/04/05 09:16:28;;;;;;;11.70;1.85;;;20.50;65.90;;;;;;7900331;28;20200;-54
2022/04/05 09:20:16;;;;;;;16.45;1.48;;;20.50;66.00;;;;;;7900761;28;20264;-51
2022/04/05 09:24:08;;;;;;;14.65;1.40;;;20.50;66.00;;;;;;7900226;28;20238;-52
2022/04/05 09:27:58;;;;;;;9.20;1.05;;;20.50;66.00;;;;;;7899919;28;20173;-52
2022/04/05 09:31:48;;;;;;;8.88;1.25;;;20.60;66.00;;;;;;7899490;28;20242;-52
2022/04/05 09:35:43;;;;;;;10.63;1.48;;;20.70;66.00;;;;;;7899893;28;20218;-52
2022/04/05 09:39:28;;;;;;;8.60;1.48;;;20.70;65.80;;;;;;7926864;28;20175;-51
2022/04/05 09:43:15;;;;;;;8.73;1.70;;;20.90;66.00;;;;;;7930541;28;20268;-51
2022/04/05 09:47:05;;;;;;;11.98;1.20;;;20.90;65.90;;;;;;7930643;28;20176;-50
2022/04/05 09:51:07;;;;;;;9.57;1.40;;;21.00;66.10;;;;;;7930178;28;20191;-51
2022/04/05 09:54:53;;;;;;;11.25;1.20;;;21.00;66.00;;;;;;7930501;28;20220;-51
2022/04/05 09:58:46;;;;;;;8.25;1.08;;;21.10;66.20;;;;;;7930466;28;20199;-52
2022/04/05 10:02:31;;;;;;;6.00;0.98;;;21.10;66.20;;;;;;7930198;28;20645;-52
2022/04/05 10:06:17;;;;;;;10.45;1.33;;;21.10;66.20;;;;;;7929422;28;20677;-51
2022/04/05 10:10:05;;;;;;;5.60;1.00;;;21.10;66.40;;;;;;7898288;28;20220;-52
2022/04/05 10:13:51;;;;;;;3.50;0.93;;;21.10;66.50;;;;;;7898701;28;20597;-52
2022/04/05 10:17:43;;;;;;;7.53;1.58;;;21.10;66.60;;;;;;7901178;28;20181;-52
2022/04/05 10:21:31;;;;;;;11.75;1.23;;;21.10;66.70;;;;;;7906446;28;20188;-50
2022/04/05 10:25:17;;;;;;;16.73;1.10;;;21.00;67.00;;;;;;7935900;28;20665;-52
2022/04/05 10:29:08;;;;;;;9.45;1.42;;;21.00;67.00;;;;;;7935940;28;20544;-51
2022/04/05 10:33:20;;;;;;;4.07;0.95;;;20.90;67.10;;;;;;7935534;28;20287;-50
2022/04/05 10:37:28;;;;;;;7.85;1.00;;;20.90;67.30;;;;;;7927161;28;20177;-51
2022/04/05 10:41:20;;;;;;;7.68;1.20;;;20.90;67.40;;;;;;7903298;28;20250;-52
2022/04/05 10:45:14;;;;;;;10.38;1.50;;;20.80;67.30;;;;;;7903852;28;20201;-53
2022/04/05 10:49:00;;;;;;;10.93;1.30;;;20.80;67.40;;;;;;7903690;28;20181;-52
2022/04/05 10:52:47;;;;;;;8.95;2.40;;;20.80;67.50;;;;;;7906682;28;20223;-52
2022/04/05 10:56:33;;;;;;;14.00;1.60;;;20.70;67.50;;;;;;7903256;28;20633;-51
2022/04/05 11:00:26;;;;;;;7.72;1.33;;;20.70;67.70;;;;;;7902725;28;20272;-52
2022/04/05 11:04:20;;;;;;;7.13;1.67;;;20.70;67.90;;;;;;7902759;28;20192;-52
2022/04/05 11:08:17;;;;;;;6.13;1.30;;;20.70;68.00;;;;;;7920788;28;20677;-52
2022/04/05 11:12:06;;;;;;;12.70;1.60;;;20.60;67.70;;;;;;7919151;28;20204;-52
2022/04/05 11:15:56;;;;;;;12.25;1.58;;;20.70;68.50;;;;;;7908202;28;20262;-53
2022/04/05 11:19:45;;;;;;;10.57;1.48;;;20.70;67.80;;;;;;7918228;28;20774;-52
2022/04/05 11:23:40;;;;;;;15.90;1.40;;;20.60;67.70;;;;;;7902651;28;20200;-52
2022/04/05 11:27:28;;;;;;;15.70;1.70;;;20.60;67.80;;;;;;7901903;28;20180;-51
2022/04/05 11:31:26;;;;;;;7.57;1.70;;;20.60;67.60;;;;;;7933489;28;20180;-52
2022/04/05 11:35:27;;;;;;;6.88;1.58;;;20.60;67.40;;;;;;7934817;28;20555;-52
2022/04/05 11:39:13;;;;;;;10.60;2.17;;;20.60;67.20;;;;;;7930674;28;20168;-52
2022/04/05 11:43:02;;;;;;;6.93;2.03;;;20.60;67.10;;;;;;7902433;28;20192;-54
2022/04/05 11:46:48;;;;;;;11.25;1.95;;;20.70;67.00;;;;;;7902444;28;20726;-50
2022/04/05 11:50:37;;;;;;;5.75;1.35;;;20.70;67.00;;;;;;7902022;28;20189;-52
2022/04/05 11:54:24;;;;;;;6.57;1.60;;;20.70;67.00;;;;;;7902233;28;20829;-53
2022/04/05 11:58:11;;;;;;;4.93;1.45;;;20.70;66.90;;;;;;7902202;28;20267;-52
2022/04/05 12:01:56;;;;;;;4.93;1.17;;;20.70;66.80;;;;;;7901814;28;20191;-52
2022/04/05 12:05:46;;;;;;;12.20;2.05;;;20.70;66.90;;;;;;7901581;28;20196;-53
2022/04/05 12:09:33;;;;;;;2.20;1.23;;;20.70;66.80;;;;;;7901572;28;20204;-52
2022/04/05 12:13:27;;;;;;;5.30;1.30;;;20.70;66.70;;;;;;7901511;28;20547;-52
2022/04/05 12:17:13;;;;;;;7.97;1.80;;;20.70;66.80;;;;;;7901716;28;20829;-52
2022/04/05 12:21:04;;;;;;;5.15;1.60;;;20.70;67.30;;;;;;7900011;28;20595;-51
2022/04/05 12:24:51;;;;;;;7.05;1.52;;;20.70;67.70;;;;;;7901267;28;20192;-52
2022/04/05 12:28:42;;;;;;;8.50;2.10;;;20.80;67.90;;;;;;7901053;28;20548;-51
2022/04/05 12:32:35;;;;;;;12.18;1.70;;;20.70;67.90;;;;;;7901097;28;20215;-50
2022/04/05 12:36:21;;;;;;;7.45;1.90;;;20.70;67.90;;;;;;7901197;28;20193;-52
2022/04/05 12:40:25;;;;;;;8.38;1.42;;;20.70;68.10;;;;;;7900101;28;20168;-50
2022/04/05 12:44:19;;;;;;;5.55;1.77;;;20.80;68.20;;;;;;7901068;28;20799;-51
2022/04/05 12:48:12;;;;;;;8.02;1.98;;;20.80;68.20;;;;;;7901273;28;20176;-52
2022/04/05 12:52:14;;;;;;;9.15;2.00;;;20.70;68.20;;;;;;7900455;28;20204;-52
2022/04/05 12:56:09;;;;;;;4.13;1.60;;;20.70;69.10;;;;;;7915197;28;21037;-52
2022/04/05 13:00:08;;;;;;;5.80;1.70;;;20.70;68.40;;;;;;7905235;28;20175;-52
2022/04/05 13:03:58;;;;;;;11.85;1.85;;;20.70;68.50;;;;;;7900605;28;20207;-51
2022/04/05 13:07:53;;;;;;;2.05;1.40;;;20.70;68.50;;;;;;7899860;28;20176;-52
2022/04/05 13:11:39;;;;;;;9.63;2.60;;;20.60;68.40;;;;;;7905718;28;20199;-52
2022/04/05 13:15:25;;;;;;;8.32;1.67;;;20.60;68.20;;;;;;7931188;28;20191;-53
2022/04/05 13:19:13;;;;;;;4.13;1.67;;;20.50;68.10;;;;;;7931838;28;20204;-50
2022/04/05 13:23:03;;;;;;;6.25;1.80;;;20.50;68.10;;;;;;7931855;28;20575;-52
2022/04/05 13:26:51;;;;;;;10.30;1.70;;;20.50;68.10;;;;;;7931321;28;20528;-53
2022/04/05 13:30:45;;;;;;;5.82;1.58;;;20.50;68.00;;;;;;7909283;28;20192;-52
2022/04/05 13:34:34;;;;;;;4.88;1.70;;;20.60;68.00;;;;;;7899873;28;20208;-52
2022/04/05 13:38:20;;;;;;;9.57;1.75;;;20.60;68.00;;;;;;7900198;28;20177;-52
2022/04/05 13:42:13;;;;;;;15.43;2.00;;;20.60;68.00;;;;;;7900611;28;20185;-53
2022/04/05 13:45:59;;;;;;;14.70;1.85;;;20.50;67.90;;;;;;7899021;28;20234;-53
2022/04/05 13:49:44;;;;;;;9.10;1.67;;;20.60;68.00;;;;;;7898382;28;20200;-52
2022/04/05 13:53:30;;;;;;;18.48;1.92;;;20.60;68.20;;;;;;7904507;28;20205;-52
2022/04/05 13:57:20;;;;;;;16.58;1.90;;;20.70;68.20;;;;;;7906440;28;20269;-52
2022/04/05 14:01:05;;;;;;;12.20;1.88;;;20.80;68.10;;;;;;7936346;28;20172;-52
2022/04/05 14:04:51;;;;;;;12.60;1.77;;;20.90;68.10;;;;;;7936010;28;20333;-52
2022/04/05 14:08:37;;;;;;;12.00;3.15;;;21.00;68.00;;;;;;7935913;28;20187;-52
2022/04/05 14:12:22;;;;;;;27.27;2.90;;;21.10;68.00;;;;;;7935891;28;20693;-53
2022/04/05 14:16:11;;;;;;;8.45;2.20;;;21.20;64.80;;;;;;7935837;28;20243;-51
2022/04/05 14:19:57;;;;;;;9.85;1.88;;;21.20;66.30;;;;;;7935543;27;20160;-52
2022/04/05 14:23:43;;;;;;;13.98;2.25;;;21.30;66.50;;;;;;7935524;28;20196;-51
2022/04/05 14:27:29;;;;;;;10.02;1.80;;;21.50;66.50;;;;;;7907742;28;20189;-52
2022/04/05 14:31:15;;;;;;;9.57;1.42;;;21.60;66.30;;;;;;7903474;28;20207;-52
2022/04/05 14:35:01;;;;;;;5.70;1.70;;;21.80;66.20;;;;;;7903570;28;20686;-51
2022/04/05 14:38:47;;;;;;;7.68;1.58;;;21.90;66.00;;;;;;7903349;28;20642;-52
2022/04/05 14:42:33;;;;;;;4.88;1.73;;;22.00;65.90;;;;;;7908363;28;20717;-52
2022/04/05 14:46:19;;;;;;;4.78;1.70;;;22.10;66.00;;;;;;7934853;28;20565;-52
2022/04/05 14:50:05;;;;;;;5.53;1.80;;;22.10;66.10;;;;;;7933926;28;20184;-54
2022/04/05 14:53:53;;;;;;;8.20;1.85;;;22.10;66.40;;;;;;7934870;28;20298;-52
2022/04/05 14:57:39;;;;;;;4.68;1.50;;;22.20;66.50;;;;;;7928825;28;20173;-52
2022/04/05 15:01:25;;;;;;;10.82;1.52;;;22.30;66.40;;;;;;7902661;28;20198;-52
2022/04/05 15:05:10;;;;;;;3.45;1.33;;;22.40;66.50;;;;;;7902030;28;20205;-51
2022/04/05 15:08:56;;;;;;;8.32;1.38;;;22.50;66.40;;;;;;7902520;28;20295;-53
2022/04/05 15:12:42;;;;;;;9.75;1.60;;;22.60;66.10;;;;;;7919648;28;20857;-52
2022/04/05 15:16:28;;;;;;;7.72;1.30;;;22.70;65.90;;;;;;7933884;28;20199;-52
2022/04/05 15:20:13;;;;;;;6.05;1.40;;;22.70;65.90;;;;;;7934413;28;20174;-50
2022/04/05 15:23:59;;;;;;;12.38;1.90;;;22.70;65.90;;;;;;7933975;28;20195;-54
2022/04/05 15:27:45;;;;;;;7.35;1.58;;;22.60;65.90;;;;;;7926119;28;20181;-53
2022/04/05 15:31:31;;;;;;;5.88;1.30;;;22.60;65.80;;;;;;7902028;28;20653;-50
2022/04/05 15:35:16;;;;;;;5.13;1.42;;;22.50;66.00;;;;;;7902149;28;20215;-50
2022/04/05 15:39:02;;;;;;;5.47;1.25;;;22.40;66.10;;;;;;7902184;28;20176;-53
2022/04/05 15:42:49;;;;;;;2.47;1.48;;;22.40;66.20;;;;;;7910139;28;20191;-50
2022/04/05 15:46:34;;;;;;;4.15;1.52;;;22.30;66.50;;;;;;7925572;28;20218;-50
2022/04/05 15:50:21;;;;;;;2.50;1.40;;;22.30;66.80;;;;;;7901272;28;20761;-51
2022/04/05 15:54:06;;;;;;;3.40;1.25;;;22.20;67.00;;;;;;7901715;28;20208;-50
2022/04/05 15:57:52;;;;;;;1.92;1.10;;;22.20;67.20;;;;;;7910102;28;20180;-52
2022/04/05 16:01:37;;;;;;;6.97;1.10;;;22.10;67.20;;;;;;7921485;28;20184;-50
2022/04/05 16:05:23;;;;;;;5.38;1.30;;;22.10;67.20;;;;;;7901005;28;20208;-50
2022/04/05 16:09:08;;;;;;;2.17;1.30;;;22.20;67.20;;;;;;7900560;28;20185;-51
2022/04/05 16:12:54;;;;;;;3.20;1.00;;;22.10;67.10;;;;;;7909902;28;20291;-52
2022/04/05 16:16:39;;;;;;;2.65;1.02;;;22.20;67.10;;;;;;7932531;28;20212;-50
2022/04/05 16:20:25;;;;;;;4.65;1.33;;;22.10;66.90;;;;;;7908119;28;20169;-50
2022/04/05 16:24:11;;;;;;;8.02;1.20;;;22.10;66.70;;;;;;7900457;28;20211;-50
2022/04/05 16:27:56;;;;;;;3.28;2.13;;;22.00;66.30;;;;;;7900248;28;20176;-51
2022/04/05 16:31:42;;;;;;;8.55;1.35;;;21.90;66.40;;;;;;7900207;28;20173;-51
2022/04/05 16:35:27;;;;;;;8.35;1.35;;;21.80;66.50;;;;;;7900008;28;20711;-51
2022/04/05 16:39:13;;;;;;;17.23;1.48;;;21.80;66.80;;;;;;7899906;28;20179;-51
2022/04/05 16:42:59;;;;;;;12.27;1.95;;;21.80;67.10;;;;;;7910743;28;20222;-52
2022/04/05 16:46:45;;;;;;;10.38;1.33;;;21.70;67.20;;;;;;7931410;28;20199;-52
2022/04/05 16:50:31;;;;;;;4.05;1.25;;;21.80;67.30;;;;;;7930940;28;20748;-50
2022/04/05 16:54:16;;;;;;;5.05;1.05;;;21.80;68.10;;;;;;7917281;28;20740;-52
2022/04/05 16:58:03;;;;;;;9.48;1.48;;;21.80;67.30;;;;;;7911303;28;20722;-53
2022/04/05 17:01:49;;;;;;;8.40;1.48;;;21.80;67.20;;;;;;7931115;28;20546;-53
2022/04/05 17:05:35;;;;;;;9.25;1.30;;;21.80;67.30;;;;;;7931109;28;20227;-49
2022/04/05 17:09:21;;;;;;;2.25;1.17;;;21.70;67.20;;;;;;7930756;28;20171;-53
2022/04/05 17:13:07;;;;;;;3.97;1.10;;;21.60;67.50;;;;;;7919038;28;20208;-50
2022/04/05 17:16:53;;;;;;;5.13;1.25;;;21.70;67.70;;;;;;7899512;28;20188;-51
2022/04/05 17:20:38;;;;;;;2.63;1.13;;;21.60;67.70;;;;;;7898964;28;20169;-52
2022/04/05 17:24:24;;;;;;;3.45;1.02;;;21.60;67.70;;;;;;7899275;28;20270;-51
2022/04/05 17:28:11;;;;;;;9.55;1.45;;;21.60;67.80;;;;;;7917771;28;20559;-51
2022/04/05 17:31:57;;;;;;;7.70;1.77;;;21.60;67.20;;;;;;7937067;28;20180;-54
2022/04/05 17:35:44;;;;;;;7.90;1.40;;;21.60;67.00;;;;;;7934748;28;20673;-52
2022/04/05 17:39:29;;;;;;;18.80;1.45;;;21.60;66.90;;;;;;7936983;28;20174;-50
2022/04/05 17:43:15;;;;;;;3.95;1.33;;;21.50;67.00;;;;;;7923238;28;20191;-51
2022/04/05 17:47:00;;;;;;;12.95;1.40;;;21.50;67.20;;;;;;7905442;28;20699;-52
2022/04/05 17:50:46;;;;;;;16.90;1.45;;;21.50;67.30;;;;;;7904562;28;20200;-50
2022/04/05 17:54:31;;;;;;;3.30;1.52;;;21.40;67.40;;;;;;7905033;28;20212;-50
2022/04/05 17:58:17;;;;;;;9.45;1.40;;;21.30;67.50;;;;;;7919367;28;20276;-50
2022/04/05 18:02:02;;;;;;;8.50;1.20;;;21.30;67.60;;;;;;7907444;28;20193;-50
2022/04/05 18:05:49;;;;;;;10.18;1.63;;;21.20;67.70;;;;;;7904479;28;20666;-50
2022/04/05 18:09:36;;;;;;;6.53;1.17;;;21.20;68.00;;;;;;7904156;28;20172;-50
2022/04/05 18:13:21;;;;;;;4.93;1.27;;;21.20;68.10;;;;;;7919807;28;20227;-51
2022/04/05 18:17:07;;;;;;;5.93;1.33;;;21.20;68.10;;;;;;7936125;28;20176;-50
2022/04/05 18:20:52;;;;;;;8.07;1.40;;;21.30;68.20;;;;;;7935486;28;20177;-53
2022/04/05 18:24:37;;;;;;;8.40;1.30;;;21.30;68.10;;;;;;7935618;28;20235;-50
2022/04/05 18:28:23;;;;;;;6.88;1.17;;;21.40;68.10;;;;;;7935334;28;20282;-50
2022/04/05 18:32:09;;;;;;;5.20;1.40;;;21.50;68.10;;;;;;7935278;28;20212;-52
2022/04/05 18:35:55;;;;;;;3.92;1.08;;;21.60;68.00;;;;;;7935482;28;20244;-50
2022/04/05 18:39:42;;;;;;;4.95;1.27;;;21.60;67.80;;;;;;7933666;28;20168;-50
2022/04/05 18:43:28;;;;;;;3.53;1.05;;;21.80;67.70;;;;;;7918033;28;20192;-52
2022/04/05 18:47:18;;;;;;;6.72;1.05;;;21.80;67.70;;;;;;7903013;28;20665;-50
2022/04/05 18:51:05;;;;;;;12.77;1.58;;;21.90;67.80;;;;;;7903076;28;20200;-51
2022/04/05 18:54:50;;;;;;;5.28;1.30;;;22.00;67.70;;;;;;7903283;28;20204;-50
2022/04/05 18:58:36;;;;;;;8.20;1.30;;;22.10;67.80;;;;;;7927887;28;20180;-52
2022/04/05 19:02:22;;;;;;;16.30;1.40;;;22.10;67.40;;;;;;7935370;28;20176;-50
2022/04/05 19:06:08;;;;;;;9.02;1.48;;;22.10;67.40;;;;;;7935484;28;20196;-50
2022/04/05 19:09:54;;;;;;;8.35;1.30;;;22.10;67.10;;;;;;7935535;28;20177;-49
2022/04/05 19:13:39;;;;;;;6.65;1.40;;;22.20;66.80;;;;;;7913881;28;20240;-52
2022/04/05 19:17:25;;;;;;;13.15;1.55;;;22.20;66.60;;;;;;7903474;28;20709;-52
2022/04/05 19:21:10;;;;;;;8.45;1.60;;;22.20;66.50;;;;;;7903044;28;20722;-50
2022/04/05 19:24:56;;;;;;;12.15;1.30;;;22.20;66.80;;;;;;7925939;28;20580;-50
2022/04/05 19:28:42;;;;;;;12.25;1.30;;;22.20;68.00;;;;;;7933682;28;20537;-53
2022/04/05 19:32:27;;;;;;;2.85;1.23;;;22.10;68.60;;;;;;7917375;27;20804;-50
2022/04/05 19:36:13;;;;;;;11.40;1.77;;;22.10;68.90;;;;;;7902215;28;20900;-52
2022/04/05 19:39:59;;;;;;;14.05;2.50;;;22.00;69.00;;;;;;7902699;28;20577;-53